createdAt,value
2023-09-07T00:02:13.598Z,16.31
2023-09-07T00:04:41.839Z,16.32
2023-09-07T00:07:10.431Z,16.26
2023-09-07T00:09:39.856Z,16.28
2023-09-07T00:12:10.936Z,16.28
2023-09-07T00:14:38.934Z,16.14
2023-09-07T00:17:07.317Z,16.02
2023-09-07T00:19:38.119Z,15.99
2023-09-07T00:22:06.965Z,15.99
2023-09-07T00:24:34.992Z,16.03
2023-09-07T00:27:06.926Z,16.19
2023-09-07T00:29:35.135Z,16.33
2023-09-07T00:32:05.424Z,16.33
2023-09-07T00:34:33.601Z,16.34
2023-09-07T00:37:02.532Z,16.38
2023-09-07T00:39:30.575Z,16.28
2023-09-07T00:41:58.856Z,16.21
2023-09-07T00:44:28.218Z,15.78
2023-09-07T00:46:56.652Z,15.73
2023-09-07T00:49:24.619Z,15.71
2023-09-07T00:51:53.248Z,15.71
2023-09-07T00:54:21.680Z,15.74
2023-09-07T00:56:50.105Z,15.75
2023-09-07T00:59:18.218Z,15.71
2023-09-07T01:01:47.979Z,15.65
2023-09-07T01:04:16.309Z,15.60
2023-09-07T01:06:49.119Z,15.57
2023-09-07T01:09:21.746Z,15.61
2023-09-07T01:11:50.053Z,15.58
2023-09-07T01:14:18.303Z,15.47
2023-09-07T01:16:49.665Z,15.40
2023-09-07T01:19:17.744Z,15.45
2023-09-07T01:21:47.990Z,15.61
2023-09-07T01:24:16.263Z,15.62
2023-09-07T01:26:44.744Z,15.57
2023-09-07T01:29:12.729Z,15.48
2023-09-07T01:31:41.571Z,15.41
2023-09-07T01:34:09.727Z,15.50
2023-09-07T01:36:37.985Z,15.71
2023-09-07T01:39:08.152Z,15.90
2023-09-07T01:41:36.769Z,15.95
2023-09-07T01:44:05.078Z,16.06
2023-09-07T01:46:33.634Z,16.11
2023-09-07T01:49:01.680Z,16.15
2023-09-07T01:51:29.934Z,16.12
2023-09-07T01:53:57.980Z,16.16
2023-09-07T01:56:27.753Z,16.07
2023-09-07T01:58:55.816Z,16.02
2023-09-07T02:01:24.773Z,16.03
2023-09-07T02:03:52.792Z,15.93
2023-09-07T02:06:21.057Z,15.86
2023-09-07T02:08:49.675Z,15.85
2023-09-07T02:11:17.968Z,15.79
2023-09-07T02:13:48.457Z,15.68
2023-09-07T02:16:17.247Z,15.73
2023-09-07T02:18:48.100Z,15.83
2023-09-07T02:21:16.542Z,15.97
2023-09-07T02:23:44.666Z,16.00
2023-09-07T02:26:13.004Z,16.10
2023-09-07T02:28:41.011Z,16.18
2023-09-07T02:31:34.372Z,16.22
2023-09-07T02:34:04.621Z,16.29
2023-09-07T02:36:32.928Z,16.35
2023-09-07T02:39:01.425Z,16.44
2023-09-07T02:41:29.743Z,16.49
2023-09-07T02:43:57.952Z,16.59
2023-09-07T02:46:26.398Z,16.66
2023-09-07T02:48:58.149Z,16.72
2023-09-07T02:51:27.952Z,16.78
2023-09-07T02:53:56.362Z,16.87
2023-09-07T02:56:24.596Z,16.88
2023-09-07T02:58:52.524Z,16.87
2023-09-07T03:01:22.266Z,16.88
2023-09-07T03:03:51.143Z,17.01
2023-09-07T03:06:19.827Z,16.98
2023-09-07T03:08:49.276Z,16.92
2023-09-07T03:11:17.577Z,16.87
2023-09-07T03:13:45.729Z,16.83
2023-09-07T03:16:14.097Z,16.82
2023-09-07T03:18:42.324Z,16.51
2023-09-07T03:21:10.676Z,16.73
2023-09-07T03:23:40.771Z,16.53
2023-09-07T03:26:10.607Z,16.38
2023-09-07T03:28:38.863Z,16.44
2023-09-07T03:31:07.198Z,16.57
2023-09-07T03:33:35.774Z,16.64
2023-09-07T03:36:05.224Z,16.74
2023-09-07T03:38:33.494Z,16.76
2023-09-07T03:41:02.108Z,16.70
2023-09-07T03:43:31.509Z,16.83
2023-09-07T03:46:00.067Z,16.91
2023-09-07T03:48:28.054Z,16.98
2023-09-07T03:50:56.442Z,17.03
2023-09-07T03:53:24.425Z,17.04
2023-09-07T03:55:52.647Z,17.12
2023-09-07T03:58:20.666Z,17.14
2023-09-07T04:00:50.272Z,17.21
2023-09-07T04:03:18.474Z,17.30
2023-09-07T04:05:47.084Z,17.36
2023-09-07T04:08:15.063Z,17.41
2023-09-07T04:10:43.366Z,17.53
2023-09-07T04:13:11.321Z,17.59
2023-09-07T04:15:44.066Z,17.61
2023-09-07T04:18:16.850Z,17.65
2023-09-07T04:20:45.391Z,17.71
2023-09-07T04:23:13.375Z,17.75
2023-09-07T04:25:41.597Z,17.81
2023-09-07T04:28:10.104Z,17.84
2023-09-07T04:30:39.579Z,17.91
2023-09-07T04:33:07.696Z,17.95
2023-09-07T04:35:37.364Z,17.95
2023-09-07T04:38:05.626Z,18.00
2023-09-07T04:40:34.078Z,18.02
2023-09-07T04:43:02.192Z,18.08
2023-09-07T04:45:30.467Z,18.12
2023-09-07T04:47:58.522Z,18.21
2023-09-07T04:50:26.866Z,18.27
2023-09-07T04:52:56.395Z,18.34
2023-09-07T04:55:24.690Z,18.40
2023-09-07T04:57:52.612Z,18.50
2023-09-07T05:00:21.062Z,18.59
2023-09-07T05:02:49.097Z,18.70
2023-09-07T05:05:17.412Z,18.84
2023-09-07T05:07:45.437Z,18.98
2023-09-07T05:10:15.187Z,19.10
2023-09-07T05:12:43.321Z,19.24
2023-09-07T05:15:12.067Z,19.44
2023-09-07T05:17:40.440Z,19.66
2023-09-07T05:20:10.291Z,19.75
2023-09-07T05:22:40.868Z,19.84
2023-09-07T05:25:09.678Z,19.91
2023-09-07T05:27:39.134Z,19.83
2023-09-07T05:30:08.208Z,19.66
2023-09-07T05:32:36.206Z,19.58
2023-09-07T05:35:04.911Z,19.61
2023-09-07T05:37:32.851Z,19.70
2023-09-07T05:40:01.312Z,19.91
2023-09-07T05:42:29.360Z,20.04
2023-09-07T05:44:58.993Z,20.12
2023-09-07T05:47:27.837Z,20.10
2023-09-07T05:49:56.173Z,20.13
2023-09-07T05:52:24.145Z,20.26
2023-09-07T05:54:52.533Z,20.29
2023-09-07T05:57:20.534Z,20.38
2023-09-07T05:59:48.780Z,20.54
2023-09-07T06:02:18.614Z,20.63
2023-09-07T06:04:47.010Z,20.67
2023-09-07T06:07:15.005Z,20.85
2023-09-07T06:09:43.236Z,20.80
2023-09-07T06:12:11.252Z,20.99
2023-09-07T06:14:39.740Z,21.43
2023-09-07T06:17:07.865Z,21.43
2023-09-07T06:19:37.996Z,21.15
2023-09-07T06:22:06.316Z,21.08
2023-09-07T06:24:34.614Z,21.03
2023-09-07T06:27:02.856Z,20.99
2023-09-07T06:29:31.351Z,21.03
2023-09-07T06:31:59.701Z,21.06
2023-09-07T06:34:28.284Z,21.22
2023-09-07T06:36:57.904Z,21.34
2023-09-07T06:39:26.229Z,21.25
2023-09-07T06:41:54.469Z,21.64
2023-09-07T06:44:22.697Z,21.67
2023-09-07T06:46:51.008Z,21.45
2023-09-07T06:49:19.471Z,21.17
2023-09-07T06:51:48.138Z,20.92
2023-09-07T06:54:17.953Z,20.72
2023-09-07T06:56:45.928Z,20.49
2023-09-07T06:59:14.300Z,20.58
2023-09-07T07:01:42.366Z,20.50
2023-09-07T07:04:11.083Z,20.21
2023-09-07T07:06:39.126Z,20.32
2023-09-07T07:09:07.584Z,20.36
2023-09-07T07:11:37.018Z,20.36
2023-09-07T07:14:05.399Z,20.31
2023-09-07T07:16:33.436Z,20.28
2023-09-07T07:19:01.811Z,20.30
2023-09-07T07:21:29.770Z,20.24
2023-09-07T07:23:57.991Z,20.40
2023-09-07T07:26:25.984Z,20.59
2023-09-07T07:28:55.793Z,20.61
2023-09-07T07:31:23.800Z,20.63
2023-09-07T07:33:53.430Z,20.64
2023-09-07T07:36:22.108Z,20.50
2023-09-07T07:38:50.431Z,20.37
2023-09-07T07:41:18.422Z,20.36
2023-09-07T07:43:46.750Z,20.40
2023-09-07T07:46:17.200Z,20.25
2023-09-07T07:48:45.704Z,20.27
2023-09-07T07:51:13.816Z,20.36
2023-09-07T07:53:42.294Z,20.46
2023-09-07T07:56:16.608Z,20.44
2023-09-07T07:58:44.946Z,20.36
2023-09-07T08:01:18.073Z,20.44
2023-09-07T08:03:46.711Z,20.52
2023-09-07T08:06:14.751Z,20.47
2023-09-07T08:08:43.028Z,20.52
2023-09-07T08:11:11.076Z,20.51
2023-09-07T08:13:40.799Z,20.57
2023-09-07T08:16:09.556Z,20.52
2023-09-07T08:18:41.679Z,20.54
2023-09-07T08:21:09.840Z,20.63
2023-09-07T08:23:38.194Z,20.64
2023-09-07T08:26:10.709Z,20.73
2023-09-07T08:28:39.687Z,20.83
2023-09-07T08:31:08.004Z,20.82
2023-09-07T08:33:41.702Z,20.95
2023-09-07T08:36:12.072Z,20.90
2023-09-07T08:38:40.336Z,21.07
2023-09-07T08:41:08.970Z,20.99
2023-09-07T08:43:41.948Z,21.00
2023-09-07T08:46:15.569Z,20.99
2023-09-07T08:48:45.005Z,21.08
2023-09-07T08:51:15.615Z,21.34
2023-09-07T08:53:47.587Z,21.42
2023-09-07T08:56:16.517Z,21.33
2023-09-07T08:58:46.132Z,21.08
2023-09-07T09:01:14.931Z,21.24
2023-09-07T09:03:44.574Z,21.43
2023-09-07T09:06:14.431Z,21.52
2023-09-07T09:08:45.883Z,21.40
2023-09-07T09:11:14.011Z,21.52
2023-09-07T09:13:42.595Z,21.62
2023-09-07T09:16:11.509Z,21.63
2023-09-07T09:18:40.709Z,21.72
2023-09-07T09:21:08.706Z,21.57
2023-09-07T09:23:40.434Z,21.65
2023-09-07T09:26:08.631Z,21.84
2023-09-07T09:28:37.319Z,21.90
2023-09-07T09:31:05.477Z,21.94
2023-09-07T09:33:34.419Z,21.86
2023-09-07T09:36:03.271Z,22.11
2023-09-07T09:38:33.499Z,22.20
2023-09-07T09:41:04.375Z,22.27
2023-09-07T09:43:32.618Z,22.24
2023-09-07T09:46:02.124Z,22.46
2023-09-07T09:48:30.854Z,22.48
2023-09-07T09:50:59.467Z,22.47
2023-09-07T09:53:28.742Z,22.39
2023-09-07T09:55:56.896Z,22.50
2023-09-07T09:58:26.638Z,22.40
2023-09-07T10:00:57.033Z,22.48
2023-09-07T10:03:28.010Z,22.74
2023-09-07T10:05:56.088Z,22.82
2023-09-07T10:08:25.029Z,22.86
2023-09-07T10:10:55.849Z,22.93
2023-09-07T10:13:36.051Z,22.84
2023-09-07T10:16:05.968Z,22.99
2023-09-07T10:18:37.380Z,22.82
2023-09-07T10:21:05.761Z,23.10
2023-09-07T10:23:37.848Z,23.26
2023-09-07T10:26:07.712Z,23.41
2023-09-07T10:28:37.428Z,23.53
2023-09-07T10:31:06.317Z,23.50
2023-09-07T10:33:35.462Z,23.49
2023-09-07T10:36:04.563Z,23.72
2023-09-07T10:38:50.627Z,23.91
2023-09-07T10:41:26.250Z,23.95
2023-09-07T10:44:03.839Z,24.28
2023-09-07T10:46:37.036Z,24.47
2023-09-07T10:49:24.085Z,24.63
2023-09-07T10:52:20.504Z,24.96
2023-09-07T10:54:57.890Z,25.14
2023-09-07T10:57:25.918Z,24.98
2023-09-07T10:59:56.848Z,24.86
2023-09-07T11:02:25.120Z,24.86
2023-09-07T11:04:53.172Z,24.56
2023-09-07T11:07:21.567Z,24.20
2023-09-07T11:09:53.796Z,24.39
2023-09-07T11:12:22.572Z,24.43
2023-09-07T11:14:50.621Z,23.99
2023-09-07T11:17:20.332Z,24.10
2023-09-07T11:19:53.709Z,24.01
2023-09-07T11:22:22.134Z,23.83
2023-09-07T11:24:53.251Z,23.72
2023-09-07T11:27:31.562Z,23.94
2023-09-07T11:29:59.555Z,24.20
2023-09-07T11:32:35.548Z,24.27
2023-09-07T11:35:03.792Z,24.31
2023-09-07T11:37:33.315Z,24.05
2023-09-07T11:40:01.268Z,23.92
2023-09-07T11:42:29.616Z,24.37
2023-09-07T11:44:59.002Z,24.57
2023-09-07T11:47:27.272Z,24.35
2023-09-07T11:49:56.683Z,24.31
2023-09-07T11:52:25.296Z,24.44
2023-09-07T11:54:53.288Z,24.55
2023-09-07T11:57:21.550Z,24.47
2023-09-07T11:59:58.471Z,24.34
2023-09-07T12:02:28.569Z,23.77
2023-09-07T12:04:58.289Z,23.82
2023-09-07T12:07:26.767Z,23.72
2023-09-07T12:09:57.627Z,23.87
2023-09-07T12:12:25.909Z,23.71
2023-09-07T12:14:53.871Z,23.91
2023-09-07T12:17:22.368Z,24.04
2023-09-07T12:19:51.537Z,24.23
2023-09-07T12:22:21.697Z,23.71
2023-09-07T12:24:58.533Z,23.85
2023-09-07T12:27:28.478Z,23.83
2023-09-07T12:29:59.985Z,23.93
2023-09-07T12:32:31.573Z,23.94
2023-09-07T12:35:09.590Z,23.87
2023-09-07T12:37:39.525Z,23.90
2023-09-07T12:40:12.750Z,23.78
2023-09-07T12:42:42.236Z,23.73
2023-09-07T12:45:11.749Z,23.83
2023-09-07T12:47:40.718Z,23.91
2023-09-07T12:50:09.566Z,23.89
2023-09-07T12:52:39.936Z,23.61
2023-09-07T12:55:08.895Z,23.61
2023-09-07T12:57:37.715Z,23.60
2023-09-07T13:00:07.428Z,23.76
2023-09-07T13:02:36.186Z,23.59
2023-09-07T13:05:06.540Z,23.66
2023-09-07T13:07:36.277Z,23.66
2023-09-07T13:10:06.198Z,23.89
2023-09-07T13:12:34.833Z,24.12
2023-09-07T13:15:02.836Z,23.73
2023-09-07T13:17:31.118Z,23.60
2023-09-07T13:19:59.137Z,23.88
2023-09-07T13:22:27.738Z,23.81
2023-09-07T13:24:55.717Z,23.85
2023-09-07T13:27:26.972Z,23.92
2023-09-07T13:29:55.128Z,23.95
2023-09-07T13:32:23.460Z,23.77
2023-09-07T13:34:51.403Z,23.74
2023-09-07T13:37:19.776Z,23.55
2023-09-07T13:39:47.760Z,23.50
2023-09-07T13:42:16.156Z,23.50
2023-09-07T13:44:46.769Z,23.56
2023-09-07T13:47:15.046Z,23.64
2023-09-07T13:49:43.014Z,23.69
2023-09-07T13:52:11.321Z,23.51
2023-09-07T13:54:39.303Z,23.65
2023-09-07T13:57:08.399Z,23.87
2023-09-07T13:59:37.483Z,23.64
2023-09-07T14:02:07.284Z,23.58
2023-09-07T14:04:35.378Z,23.67
2023-09-07T14:07:03.622Z,23.84
2023-09-07T14:09:31.624Z,23.90
2023-09-07T14:11:59.876Z,23.66
2023-09-07T14:14:27.936Z,23.87
2023-09-07T14:16:59.371Z,23.67
2023-09-07T14:19:32.171Z,23.89
2023-09-07T14:22:00.816Z,23.79
2023-09-07T14:24:28.965Z,23.82
2023-09-07T14:26:57.243Z,23.78
2023-09-07T14:29:25.246Z,23.69
2023-09-07T14:31:53.561Z,23.75
2023-09-07T14:34:21.518Z,23.70
2023-09-07T14:36:51.196Z,23.66
2023-09-07T14:39:24.778Z,23.61
2023-09-07T14:41:54.460Z,23.86
2023-09-07T14:44:22.578Z,23.89
2023-09-07T14:46:51.767Z,23.83
2023-09-07T14:49:20.022Z,23.84
2023-09-07T14:51:48.395Z,23.79
2023-09-07T14:54:19.158Z,23.83
2023-09-07T14:56:47.824Z,23.72
2023-09-07T14:59:15.837Z,24.03
2023-09-07T15:01:49.396Z,23.83
2023-09-07T15:04:27.342Z,23.75
2023-09-07T15:06:56.185Z,23.65
2023-09-07T15:09:25.992Z,23.63
2023-09-07T15:11:54.419Z,23.69
2023-09-07T15:14:22.426Z,23.66
2023-09-07T15:16:50.821Z,23.72
2023-09-07T15:19:18.913Z,23.54
2023-09-07T15:21:47.259Z,23.46
2023-09-07T15:24:15.575Z,23.52
2023-09-07T15:26:45.995Z,23.46
2023-09-07T15:29:14.163Z,23.32
2023-09-07T15:31:42.954Z,23.37
2023-09-07T15:34:11.104Z,23.35
2023-09-07T15:36:39.401Z,23.24
2023-09-07T15:39:07.495Z,23.27
2023-09-07T15:41:35.762Z,23.23
2023-09-07T15:44:05.464Z,23.12
2023-09-07T15:46:33.743Z,23.06
2023-09-07T15:49:04.140Z,23.11
2023-09-07T15:51:32.408Z,23.16
2023-09-07T15:54:00.357Z,23.19
2023-09-07T15:56:28.757Z,23.10
2023-09-07T15:58:56.881Z,23.11
2023-09-07T16:01:26.578Z,23.05
2023-09-07T16:03:54.604Z,22.83
2023-09-07T16:06:22.930Z,22.87
2023-09-07T16:08:51.014Z,22.90
2023-09-07T16:11:19.392Z,22.88
2023-09-07T16:13:48.014Z,22.84
2023-09-07T16:16:16.515Z,22.79
2023-09-07T16:18:46.155Z,22.73
2023-09-07T16:21:16.903Z,22.52
2023-09-07T16:23:46.560Z,22.50
2023-09-07T16:26:15.484Z,22.45
2023-09-07T16:28:43.465Z,22.40
2023-09-07T16:31:11.780Z,22.26
2023-09-07T16:33:39.775Z,22.15
2023-09-07T16:36:09.647Z,22.09
2023-09-07T16:38:37.651Z,22.05
2023-09-07T16:41:06.803Z,22.01
2023-09-07T16:43:34.901Z,21.96
2023-09-07T16:46:03.755Z,21.87
2023-09-07T16:48:32.397Z,21.75
2023-09-07T16:51:01.203Z,21.55
2023-09-07T16:53:32.510Z,21.52
2023-09-07T16:56:00.883Z,21.36
2023-09-07T16:58:56.796Z,21.35
2023-09-07T17:01:17.740Z,21.12
2023-09-07T17:03:45.995Z,21.06
2023-09-07T17:06:14.397Z,20.89
2023-09-07T17:08:43.877Z,20.73
2023-09-07T17:11:12.161Z,20.58
2023-09-07T17:13:45.100Z,20.38
2023-09-07T17:16:20.691Z,20.25
2023-09-07T17:18:48.882Z,20.35
2023-09-07T17:21:17.190Z,20.23
2023-09-07T17:23:46.763Z,20.11
2023-09-07T17:26:15.148Z,20.00
2023-09-07T17:28:43.113Z,19.90
2023-09-07T17:31:15.786Z,19.91
2023-09-07T17:33:44.036Z,19.82
2023-09-07T17:36:16.160Z,19.68
2023-09-07T17:38:45.556Z,19.59
2023-09-07T17:41:15.318Z,19.50
2023-09-07T17:43:46.888Z,19.52
2023-09-07T17:46:15.302Z,19.44
2023-09-07T17:48:45.173Z,19.43
2023-09-07T17:51:16.352Z,19.40
2023-09-07T17:53:44.362Z,19.40
2023-09-07T17:56:13.135Z,19.39
2023-09-07T17:58:43.261Z,19.33
2023-09-07T18:01:12.535Z,19.34
2023-09-07T18:03:41.140Z,19.27
2023-09-07T18:06:10.192Z,19.18
2023-09-07T18:08:38.379Z,19.18
2023-09-07T18:11:07.818Z,19.12
2023-09-07T18:13:35.986Z,19.13
2023-09-07T18:16:05.725Z,19.13
2023-09-07T18:18:35.770Z,19.09
2023-09-07T18:21:08.553Z,19.05
2023-09-07T18:23:37.034Z,18.94
2023-09-07T18:26:05.360Z,18.80
2023-09-07T18:28:34.549Z,18.77
2023-09-07T18:31:03.306Z,18.61
2023-09-07T18:33:32.788Z,18.52
2023-09-07T18:36:02.261Z,18.46
2023-09-07T18:38:31.470Z,18.40
2023-09-07T18:41:00.595Z,18.37
2023-09-07T18:43:28.675Z,18.32
2023-09-07T18:45:58.145Z,18.17
2023-09-07T18:48:26.269Z,18.02
2023-09-07T18:51:03.610Z,18.01
2023-09-07T18:53:31.602Z,17.99
2023-09-07T18:56:02.907Z,17.98
2023-09-07T18:58:32.450Z,17.92
2023-09-07T19:01:01.046Z,17.77
2023-09-07T19:03:30.279Z,17.84
2023-09-07T19:05:59.989Z,17.80
2023-09-07T19:08:29.790Z,17.91
2023-09-07T19:10:58.105Z,17.88
2023-09-07T19:13:28.852Z,17.85
2023-09-07T19:16:00.248Z,17.80
2023-09-07T19:18:28.468Z,17.78
2023-09-07T19:21:02.022Z,17.72
2023-09-07T19:23:44.901Z,17.59
2023-09-07T19:26:30.243Z,17.44
2023-09-07T19:28:59.304Z,17.43
2023-09-07T19:31:27.950Z,17.40
2023-09-07T19:33:56.394Z,17.45
2023-09-07T19:36:25.283Z,17.50
2023-09-07T19:38:55.726Z,17.42
2023-09-07T19:41:24.051Z,17.34
2023-09-07T19:43:52.114Z,17.32
2023-09-07T19:46:20.733Z,17.29
2023-09-07T19:48:49.424Z,17.22
2023-09-07T19:51:18.427Z,17.21
2023-09-07T19:53:46.568Z,17.20
2023-09-07T19:56:16.816Z,17.16
2023-09-07T19:58:44.857Z,17.05
2023-09-07T20:01:14.280Z,16.97
2023-09-07T20:03:43.072Z,16.84
2023-09-07T20:06:11.467Z,16.92
2023-09-07T20:08:39.817Z,16.95
2023-09-07T20:11:08.292Z,16.99
2023-09-07T20:13:38.394Z,17.00
2023-09-07T20:16:08.217Z,17.02
2023-09-07T20:18:38.722Z,16.99
2023-09-07T20:21:07.488Z,16.85
2023-09-07T20:23:37.052Z,16.76
2023-09-07T20:26:05.560Z,16.70
2023-09-07T20:28:33.941Z,16.54
2023-09-07T20:31:04.154Z,16.45
2023-09-07T20:33:32.257Z,16.40
2023-09-07T20:36:02.433Z,16.35
2023-09-07T20:38:32.970Z,16.41
2023-09-07T20:41:02.391Z,16.42
2023-09-07T20:43:31.841Z,16.29
2023-09-07T20:45:59.935Z,16.35
2023-09-07T20:48:29.762Z,16.40
2023-09-07T20:50:57.823Z,16.39
2023-09-07T20:53:26.663Z,16.44
2023-09-07T20:55:54.694Z,16.41
2023-09-07T20:58:23.579Z,16.38
2023-09-07T21:00:52.077Z,16.26
2023-09-07T21:03:20.884Z,16.15
2023-09-07T21:05:50.966Z,16.06
2023-09-07T21:08:19.442Z,16.02
2023-09-07T21:10:47.962Z,15.91
2023-09-07T21:13:16.218Z,15.99
2023-09-07T21:15:44.286Z,15.99
2023-09-07T21:18:12.617Z,16.01
2023-09-07T21:20:40.713Z,16.04
2023-09-07T21:23:10.520Z,15.96
2023-09-07T21:25:38.534Z,15.96
2023-09-07T21:28:07.359Z,15.99
2023-09-07T21:30:35.437Z,15.69
2023-09-07T21:33:04.248Z,15.98
2023-09-07T21:35:32.586Z,15.92
2023-09-07T21:38:01.694Z,15.90
2023-09-07T21:40:31.157Z,15.86
2023-09-07T21:43:03.021Z,15.88
2023-09-07T21:45:31.101Z,15.76
2023-09-07T21:47:59.412Z,15.65
2023-09-07T21:50:27.538Z,15.65
2023-09-07T21:52:58.422Z,15.68
2023-09-07T21:55:26.489Z,15.68
2023-09-07T21:57:56.230Z,15.64
2023-09-07T22:00:24.432Z,15.71
2023-09-07T22:02:52.973Z,15.69
2023-09-07T22:05:21.318Z,15.59
2023-09-07T22:07:49.332Z,15.57
2023-09-07T22:10:17.658Z,15.53
2023-09-07T22:12:45.680Z,15.60
2023-09-07T22:15:15.448Z,15.60
2023-09-07T22:17:44.572Z,15.60
2023-09-07T22:20:12.970Z,15.49
2023-09-07T22:22:41.166Z,15.34
2023-09-07T22:25:09.975Z,15.19
2023-09-07T22:27:37.994Z,15.27
2023-09-07T22:30:07.017Z,15.19
2023-09-07T22:32:36.634Z,15.26
2023-09-07T22:35:06.758Z,15.31
2023-09-07T22:37:34.918Z,15.34
2023-09-07T22:40:03.319Z,15.42
2023-09-07T22:42:32.414Z,15.36
2023-09-07T22:45:00.815Z,15.30
2023-09-07T22:47:28.801Z,15.30
2023-09-07T22:49:58.566Z,15.31
2023-09-07T22:52:26.586Z,15.23
2023-09-07T22:54:55.180Z,15.24
2023-09-07T22:57:23.406Z,15.25
2023-09-07T22:59:53.028Z,15.13
2023-09-07T23:02:21.075Z,14.98
2023-09-07T23:04:49.385Z,14.82
2023-09-07T23:07:18.852Z,14.86
2023-09-07T23:09:47.451Z,14.79
2023-09-07T23:12:15.552Z,14.80
2023-09-07T23:14:43.887Z,14.73
2023-09-07T23:17:11.924Z,14.66
2023-09-07T23:19:40.290Z,14.60
2023-09-07T23:22:08.299Z,14.50
2023-09-07T23:24:38.013Z,14.38
2023-09-07T23:27:06.378Z,14.34
2023-09-07T23:29:34.792Z,14.20
2023-09-07T23:32:04.095Z,14.18
2023-09-07T23:34:32.657Z,14.07
2023-09-07T23:37:00.812Z,14.04
2023-09-07T23:39:29.368Z,14.15
2023-09-07T23:41:58.911Z,14.27
2023-09-07T23:44:27.352Z,14.29
2023-09-07T23:46:57.406Z,14.29
2023-09-07T23:49:25.668Z,14.31
2023-09-07T23:51:53.787Z,14.30
2023-09-07T23:54:22.088Z,14.30
2023-09-07T23:56:50.341Z,14.31
2023-09-07T23:59:19.986Z,14.35
